Time;durP1;ratioP1;P1;durP2;ratioP2;P2;SDS_P1;SDS_P2;PMS_P1;PMS_P2;Temp;Humidity;BMP_temperature;BMP_pressure;BME280_temperature;BME280_humidity;BME280_pressure;Samples;Min_cycle;Max_cycle;Signal;HPM_P1;HPM_P2
2021/01/26 00:02:34;;;;;;;29.43;14.03;;;;;;;;;;5082545;28;20302;-75
2021/01/26 00:05:39;;;;;;;27.50;14.17;;;;;;;;;;5066172;28;20202;-77
2021/01/26 00:08:43;;;;;;;27.50;14.40;;;;;;;;;;5070754;28;20245;-74
2021/01/26 00:11:48;;;;;;;29.00;15.00;;;;;;;;;;5067373;28;20249;-77
2021/01/26 00:14:53;;;;;;;29.93;14.70;;;;;;;;;;5071886;28;20210;-75
2021/01/26 00:17:58;;;;;;;27.90;15.03;;;;;;;;;;5061725;28;20214;-75
2021/01/26 00:21:03;;;;;;;27.27;15.20;;;;;;;;;;5071212;28;20226;-75
2021/01/26 00:24:08;;;;;;;27.87;14.40;;;;;;;;;;5070993;28;20674;-75
2021/01/26 00:27:13;;;;;;;29.03;14.77;;;;;;;;;;5082740;28;20201;-75
2021/01/26 00:30:20;;;;;;;29.43;15.40;;;;;;;;;;5071401;28;20622;-74
2021/01/26 00:33:25;;;;;;;27.70;15.60;;;;;;;;;;5069858;28;20221;-77
2021/01/26 00:36:30;;;;;;;29.70;15.77;;;;;;;;;;5071356;28;20198;-77
2021/01/26 00:39:35;;;;;;;31.37;16.20;;;;;;;;;;5063239;28;20282;-74
2021/01/26 00:42:39;;;;;;;28.40;15.07;;;;;;;;;;5066194;28;20275;-74
2021/01/26 00:45:45;;;;;;;29.83;15.97;;;;;;;;;;5066900;28;20252;-74
2021/01/26 00:48:49;;;;;;;29.57;16.60;;;;;;;;;;5069099;28;20313;-77
2021/01/26 00:51:54;;;;;;;29.80;16.27;;;;;;;;;;5070978;28;20795;-76
2021/01/26 00:55:00;;;;;;;28.80;15.47;;;;;;;;;;5071103;28;20236;-73
2021/01/26 00:58:04;;;;;;;31.77;16.70;;;;;;;;;;5064616;28;20281;-74
2021/01/26 01:01:10;;;;;;;36.27;17.80;;;;;;;;;;5071104;28;20256;-76
2021/01/26 01:04:17;;;;;;;34.57;17.13;;;;;;;;;;5070644;28;20728;-74
2021/01/26 01:07:22;;;;;;;33.77;17.53;;;;;;;;;;5070170;28;20197;-73
2021/01/26 01:10:29;;;;;;;36.03;18.13;;;;;;;;;;5069986;28;20671;-75
2021/01/26 01:13:34;;;;;;;37.73;19.00;;;;;;;;;;5070272;28;20222;-74
2021/01/26 01:16:41;;;;;;;37.40;18.37;;;;;;;;;;5081470;28;20210;-73
2021/01/26 01:19:45;;;;;;;35.00;18.50;;;;;;;;;;5067924;28;20650;-75
2021/01/26 01:22:50;;;;;;;33.27;17.77;;;;;;;;;;5070370;28;20511;-76
2021/01/26 01:25:58;;;;;;;36.10;18.57;;;;;;;;;;5071754;28;20225;-77
2021/01/26 01:29:03;;;;;;;38.53;19.67;;;;;;;;;;5070136;28;20218;-74
2021/01/26 01:32:09;;;;;;;46.77;22.83;;;;;;;;;;5064331;28;20237;-72
2021/01/26 01:35:14;;;;;;;38.63;19.33;;;;;;;;;;5065815;28;20198;-72
2021/01/26 01:38:19;;;;;;;41.13;20.10;;;;;;;;;;5074954;28;20198;-73
2021/01/26 01:41:29;;;;;;;36.70;19.33;;;;;;;;;;5069996;28;20206;-75
2021/01/26 01:44:34;;;;;;;37.37;19.20;;;;;;;;;;5078595;28;20347;-75
2021/01/26 01:47:41;;;;;;;38.37;19.30;;;;;;;;;;5070074;28;20202;-73
2021/01/26 01:50:48;;;;;;;35.20;18.13;;;;;;;;;;5066527;28;20292;-73
2021/01/26 01:53:55;;;;;;;40.47;18.87;;;;;;;;;;5069813;28;20241;-73
2021/01/26 01:57:01;;;;;;;40.13;18.60;;;;;;;;;;5066187;28;20216;-73
2021/01/26 02:00:07;;;;;;;36.73;18.73;;;;;;;;;;5065933;28;20194;-73
2021/01/26 02:03:20;;;;;;;38.80;19.47;;;;;;;;;;5074553;28;20695;-73
2021/01/26 02:06:27;;;;;;;39.97;18.30;;;;;;;;;;5072906;28;20206;-75
2021/01/26 02:09:33;;;;;;;40.07;19.90;;;;;;;;;;5070176;28;20305;-73
2021/01/26 02:12:38;;;;;;;39.80;20.73;;;;;;;;;;5072999;28;20310;-74
2021/01/26 02:15:43;;;;;;;42.40;19.50;;;;;;;;;;5073291;28;20213;-74
2021/01/26 02:18:57;;;;;;;48.00;21.27;;;;;;;;;;5073446;28;20244;-75
2021/01/26 02:22:18;;;;;;;45.07;21.70;;;;;;;;;;5080935;28;20222;-73
2021/01/26 02:25:39;;;;;;;43.07;21.00;;;;;;;;;;5068315;28;20206;-72
2021/01/26 02:28:51;;;;;;;47.03;21.67;;;;;;;;;;5065120;28;20252;-73
2021/01/26 02:32:07;;;;;;;44.73;21.03;;;;;;;;;;5085794;28;20271;-75
2021/01/26 02:35:21;;;;;;;44.53;21.43;;;;;;;;;;5082316;28;20230;-73
2021/01/26 02:38:55;;;;;;;47.73;23.00;;;;;;;;;;5072406;28;20261;-75
2021/01/26 02:42:05;;;;;;;47.73;22.50;;;;;;;;;;5067467;28;20221;-75
2021/01/26 02:45:26;;;;;;;47.77;21.73;;;;;;;;;;5065989;28;20572;-74
2021/01/26 02:48:38;;;;;;;50.43;23.20;;;;;;;;;;5072288;28;20288;-73
2021/01/26 02:51:48;;;;;;;46.07;21.90;;;;;;;;;;5072119;28;20689;-76
2021/01/26 02:54:56;;;;;;;50.80;23.90;;;;;;;;;;5072515;28;20269;-77
2021/01/26 02:58:04;;;;;;;49.80;22.83;;;;;;;;;;5072510;28;20265;-73
2021/01/26 03:01:09;;;;;;;51.43;23.50;;;;;;;;;;5075986;28;20678;-75
2021/01/26 03:04:17;;;;;;;48.57;23.13;;;;;;;;;;5076674;28;20261;-73
2021/01/26 03:07:23;;;;;;;46.67;22.77;;;;;;;;;;5071344;28;20197;-74
2021/01/26 03:10:31;;;;;;;47.87;22.57;;;;;;;;;;5067906;28;20194;-75
2021/01/26 03:13:40;;;;;;;53.70;24.00;;;;;;;;;;5064532;28;20229;-73
2021/01/26 03:16:45;;;;;;;51.93;23.20;;;;;;;;;;5071953;28;20203;-75
2021/01/26 03:19:52;;;;;;;47.97;21.87;;;;;;;;;;5068731;28;20584;-72
2021/01/26 03:22:58;;;;;;;50.37;22.73;;;;;;;;;;5069535;28;20226;-73
2021/01/26 03:26:03;;;;;;;48.53;22.70;;;;;;;;;;5071235;28;20221;-73
2021/01/26 03:29:10;;;;;;;48.67;22.40;;;;;;;;;;5083232;28;20209;-72
2021/01/26 03:32:18;;;;;;;44.70;21.93;;;;;;;;;;5069575;28;20720;-75
2021/01/26 03:35:22;;;;;;;51.90;23.00;;;;;;;;;;5069013;28;20194;-75
2021/01/26 03:38:28;;;;;;;44.93;22.07;;;;;;;;;;5071150;28;20226;-73
2021/01/26 03:41:33;;;;;;;44.07;22.37;;;;;;;;;;5069194;28;20213;-75
2021/01/26 03:44:38;;;;;;;45.27;22.00;;;;;;;;;;5071655;28;20194;-73
2021/01/26 03:47:54;;;;;;;52.87;22.43;;;;;;;;;;5079868;28;20202;-73
2021/01/26 03:51:03;;;;;;;48.70;22.23;;;;;;;;;;5071422;28;20218;-73
2021/01/26 03:54:18;;;;;;;48.40;23.03;;;;;;;;;;5082964;28;20213;-74
2021/01/26 03:57:30;;;;;;;44.47;21.37;;;;;;;;;;5074319;28;20265;-75
2021/01/26 04:00:37;;;;;;;43.67;22.10;;;;;;;;;;5081883;28;20217;-73
2021/01/26 04:03:48;;;;;;;41.73;20.17;;;;;;;;;;5071141;28;20306;-73
2021/01/26 04:06:55;;;;;;;44.67;21.87;;;;;;;;;;5060128;28;20329;-74
2021/01/26 04:10:06;;;;;;;42.90;20.30;;;;;;;;;;5064333;28;20567;-73
2021/01/26 04:13:13;;;;;;;37.93;19.03;;;;;;;;;;5071359;28;20229;-73
2021/01/26 04:16:20;;;;;;;41.33;20.23;;;;;;;;;;5067571;28;20238;-73
2021/01/26 04:19:26;;;;;;;43.43;21.53;;;;;;;;;;5077247;28;20209;-74
2021/01/26 04:22:32;;;;;;;42.73;20.73;;;;;;;;;;5071454;28;20693;-76
2021/01/26 04:25:37;;;;;;;40.33;19.67;;;;;;;;;;5070247;28;20271;-73
2021/01/26 04:28:42;;;;;;;41.67;20.10;;;;;;;;;;5070721;28;20292;-74
2021/01/26 04:31:48;;;;;;;43.47;20.57;;;;;;;;;;5081713;28;20709;-73
2021/01/26 04:34:53;;;;;;;49.70;21.33;;;;;;;;;;5070373;28;20264;-73
2021/01/26 04:37:57;;;;;;;38.20;19.00;;;;;;;;;;5082353;28;20255;-75
2021/01/26 04:41:05;;;;;;;40.73;19.33;;;;;;;;;;5070994;28;20202;-75
2021/01/26 04:44:20;;;;;;;42.33;20.17;;;;;;;;;;5064893;28;20205;-74
2021/01/26 04:47:29;;;;;;;42.93;19.90;;;;;;;;;;5065306;28;20209;-73
2021/01/26 04:50:38;;;;;;;41.07;20.00;;;;;;;;;;5070540;28;20249;-76
2021/01/26 04:54:01;;;;;;;40.33;18.67;;;;;;;;;;5070812;28;20238;-77
2021/01/26 04:57:11;;;;;;;38.57;19.13;;;;;;;;;;5066666;28;20289;-77
2021/01/26 05:00:22;;;;;;;41.50;19.90;;;;;;;;;;5066953;28;20206;-74
2021/01/26 05:03:47;;;;;;;40.27;19.87;;;;;;;;;;5082019;28;20884;-73
2021/01/26 05:06:56;;;;;;;45.03;20.13;;;;;;;;;;5060724;28;20218;-73
2021/01/26 05:10:06;;;;;;;44.20;20.57;;;;;;;;;;5067195;28;20211;-74
2021/01/26 05:13:15;;;;;;;40.50;19.50;;;;;;;;;;5068663;28;20253;-77
2021/01/26 05:16:23;;;;;;;44.67;21.17;;;;;;;;;;5077483;28;20229;-76
2021/01/26 05:19:30;;;;;;;42.07;20.33;;;;;;;;;;5067396;28;20286;-74
2021/01/26 05:22:38;;;;;;;41.33;19.53;;;;;;;;;;5063660;28;20229;-74
2021/01/26 05:25:43;;;;;;;43.00;18.87;;;;;;;;;;5069964;28;20218;-74
2021/01/26 05:28:48;;;;;;;48.97;19.83;;;;;;;;;;5064790;28;20209;-77
2021/01/26 05:32:00;;;;;;;46.93;20.53;;;;;;;;;;5069976;28;20835;-77
2021/01/26 05:35:06;;;;;;;43.17;19.67;;;;;;;;;;5084344;28;20265;-77
2021/01/26 05:38:12;;;;;;;44.27;18.50;;;;;;;;;;5075088;28;20202;-77
2021/01/26 05:41:17;;;;;;;41.53;18.23;;;;;;;;;;5074100;28;20194;-77
2021/01/26 05:44:22;;;;;;;41.60;18.73;;;;;;;;;;5066303;28;20198;-76
2021/01/26 05:47:28;;;;;;;42.97;19.10;;;;;;;;;;5066474;28;20614;-75
2021/01/26 05:50:33;;;;;;;37.93;18.13;;;;;;;;;;5073594;28;20289;-74
2021/01/26 05:53:39;;;;;;;40.40;18.77;;;;;;;;;;5072958;28;20234;-74
2021/01/26 05:56:46;;;;;;;43.27;18.57;;;;;;;;;;5073588;28;20202;-76
2021/01/26 05:59:51;;;;;;;42.37;18.87;;;;;;;;;;5074716;28;21016;-75
2021/01/26 06:03:06;;;;;;;42.23;18.97;;;;;;;;;;5073001;28;20245;-76
2021/01/26 06:06:13;;;;;;;41.70;19.17;;;;;;;;;;5073473;28;21048;-74
2021/01/26 06:09:39;;;;;;;38.17;17.70;;;;;;;;;;5066095;28;20202;-74
2021/01/26 06:12:53;;;;;;;47.97;20.77;;;;;;;;;;5072728;28;20313;-74
2021/01/26 06:16:15;;;;;;;44.33;19.50;;;;;;;;;;5073477;28;20202;-73
2021/01/26 06:19:20;;;;;;;48.70;20.40;;;;;;;;;;5070844;28;20195;-77
2021/01/26 06:22:25;;;;;;;44.03;19.60;;;;;;;;;;5075027;28;20225;-75
2021/01/26 06:25:33;;;;;;;45.03;20.93;;;;;;;;;;5070609;28;20225;-75
2021/01/26 06:29:00;;;;;;;48.13;20.83;;;;;;;;;;5077370;28;20735;-75
2021/01/26 06:32:09;;;;;;;49.33;21.40;;;;;;;;;;5075381;28;20728;-75
2021/01/26 06:35:16;;;;;;;48.23;20.27;;;;;;;;;;5075336;28;20222;-74
2021/01/26 06:38:30;;;;;;;47.90;21.17;;;;;;;;;;5072968;28;20206;-75
2021/01/26 06:41:46;;;;;;;43.17;19.73;;;;;;;;;;5073777;28;20210;-78
2021/01/26 06:44:58;;;;;;;50.40;20.60;;;;;;;;;;5073219;28;20249;-78
2021/01/26 06:48:13;;;;;;;46.90;20.37;;;;;;;;;;5072633;28;20209;-75
2021/01/26 06:51:35;;;;;;;45.43;20.33;;;;;;;;;;5073150;28;20206;-74
2021/01/26 06:54:46;;;;;;;45.47;20.37;;;;;;;;;;5072375;28;20238;-75
2021/01/26 06:58:05;;;;;;;46.43;20.43;;;;;;;;;;5083757;28;20288;-74
2021/01/26 07:01:23;;;;;;;42.27;18.30;;;;;;;;;;5073164;28;20246;-78
2021/01/26 07:04:37;;;;;;;43.53;19.37;;;;;;;;;;5072138;28;20678;-76
2021/01/26 07:07:57;;;;;;;44.30;18.70;;;;;;;;;;5069462;28;20862;-74
2021/01/26 07:11:16;;;;;;;39.10;18.03;;;;;;;;;;5070296;28;20214;-74
2021/01/26 07:14:27;;;;;;;45.63;18.97;;;;;;;;;;5071943;28;20714;-76
2021/01/26 07:17:36;;;;;;;39.27;17.00;;;;;;;;;;5065364;28;20210;-74
2021/01/26 07:20:47;;;;;;;35.27;15.80;;;;;;;;;;5083673;28;20234;-74
2021/01/26 07:24:10;;;;;;;35.93;16.00;;;;;;;;;;5066294;28;20615;-75
2021/01/26 07:27:34;;;;;;;29.17;11.80;;;;;;;;;;5071855;28;20205;-74
2021/01/26 07:30:40;;;;;;;25.53;11.83;;;;;;;;;;5074904;28;20206;-75
2021/01/26 07:33:50;;;;;;;23.73;11.20;;;;;;;;;;5072041;28;20303;-75
2021/01/26 07:36:58;;;;;;;22.83;9.53;;;;;;;;;;5083436;28;20296;-76
2021/01/26 07:40:08;;;;;;;21.43;9.80;;;;;;;;;;5071310;28;20241;-74
2021/01/26 07:43:17;;;;;;;23.37;10.40;;;;;;;;;;5072073;28;20230;-79
2021/01/26 07:46:26;;;;;;;25.00;10.97;;;;;;;;;;5071723;28;20302;-76
2021/01/26 07:49:36;;;;;;;23.17;10.73;;;;;;;;;;5063913;28;20213;-74
2021/01/26 07:52:41;;;;;;;23.47;11.30;;;;;;;;;;5063389;28;20273;-74
2021/01/26 07:55:49;;;;;;;26.60;11.90;;;;;;;;;;5070936;28;20191;-77
2021/01/26 07:58:54;;;;;;;26.83;11.17;;;;;;;;;;5070268;28;20276;-74
2021/01/26 08:02:00;;;;;;;28.77;11.93;;;;;;;;;;5074655;28;20683;-75
2021/01/26 08:05:10;;;;;;;23.77;11.50;;;;;;;;;;5050739;28;20627;-74
2021/01/26 08:08:20;;;;;;;24.30;11.40;;;;;;;;;;5059410;28;20252;-74
2021/01/26 08:11:25;;;;;;;25.17;11.80;;;;;;;;;;5072366;28;20210;-74
2021/01/26 08:14:34;;;;;;;45.00;14.53;;;;;;;;;;5071445;28;20288;-74
2021/01/26 08:17:39;;;;;;;32.70;12.40;;;;;;;;;;5070431;28;20358;-74
2021/01/26 08:20:45;;;;;;;32.87;12.33;;;;;;;;;;5070873;28;20206;-73
2021/01/26 08:23:50;;;;;;;26.67;12.10;;;;;;;;;;5069877;28;20222;-74
2021/01/26 08:26:56;;;;;;;24.43;11.97;;;;;;;;;;5070414;28;20256;-74
2021/01/26 08:30:01;;;;;;;27.40;11.97;;;;;;;;;;5069093;28;20201;-73
2021/01/26 08:33:07;;;;;;;26.93;12.47;;;;;;;;;;5070668;28;20296;-72
2021/01/26 08:36:26;;;;;;;25.40;12.33;;;;;;;;;;5070584;28;20725;-73
2021/01/26 08:39:41;;;;;;;28.80;12.70;;;;;;;;;;5072290;28;20202;-75
2021/01/26 08:42:54;;;;;;;31.17;12.63;;;;;;;;;;5072415;28;20269;-76
2021/01/26 08:45:58;;;;;;;29.20;12.33;;;;;;;;;;5070856;28;20729;-73
2021/01/26 08:49:05;;;;;;;29.50;13.07;;;;;;;;;;5051486;28;20191;-74
2021/01/26 08:52:25;;;;;;;33.90;13.60;;;;;;;;;;5053065;28;20373;-74
2021/01/26 08:55:34;;;;;;;30.23;13.50;;;;;;;;;;5082224;28;20284;-75
2021/01/26 08:58:42;;;;;;;29.63;12.67;;;;;;;;;;5070298;28;20686;-74
2021/01/26 09:01:53;;;;;;;33.93;13.17;;;;;;;;;;5060315;28;20229;-75
2021/01/26 09:05:02;;;;;;;40.93;15.00;;;;;;;;;;5076283;28;20307;-74
2021/01/26 09:08:07;;;;;;;34.07;14.47;;;;;;;;;;5054100;28;20206;-75
2021/01/26 09:11:15;;;;;;;35.43;14.33;;;;;;;;;;5074083;28;20251;-74
2021/01/26 09:14:27;;;;;;;29.57;13.40;;;;;;;;;;5075020;28;20261;-74
2021/01/26 09:17:32;;;;;;;31.40;14.17;;;;;;;;;;5066189;28;20253;-74
2021/01/26 09:20:38;;;;;;;47.20;17.10;;;;;;;;;;5057104;28;20202;-74
2021/01/26 09:23:42;;;;;;;31.17;14.27;;;;;;;;;;5073678;28;20691;-75
2021/01/26 09:26:48;;;;;;;37.10;15.47;;;;;;;;;;5074351;28;20207;-75
2021/01/26 09:30:04;;;;;;;36.60;15.67;;;;;;;;;;5066994;28;20186;-74
2021/01/26 09:33:21;;;;;;;37.80;15.03;;;;;;;;;;5073171;28;20238;-74
2021/01/26 09:36:30;;;;;;;27.20;13.47;;;;;;;;;;5085308;28;20646;-75
2021/01/26 09:39:35;;;;;;;41.07;16.60;;;;;;;;;;5073095;28;20268;-74
2021/01/26 09:42:43;;;;;;;45.50;18.20;;;;;;;;;;5073709;28;20238;-74
2021/01/26 09:45:54;;;;;;;31.97;13.73;;;;;;;;;;5069586;28;20270;-73
2021/01/26 09:49:08;;;;;;;31.87;14.07;;;;;;;;;;5084740;28;20328;-73
2021/01/26 09:52:19;;;;;;;25.70;11.53;;;;;;;;;;5069001;28;20631;-73
2021/01/26 09:55:24;;;;;;;25.53;11.40;;;;;;;;;;5069000;28;20217;-73
2021/01/26 09:58:30;;;;;;;27.23;11.47;;;;;;;;;;5069513;28;20309;-73
2021/01/26 10:01:35;;;;;;;24.93;9.70;;;;;;;;;;5081900;28;20264;-73
2021/01/26 10:04:41;;;;;;;15.20;6.77;;;;;;;;;;5071638;28;20207;-74
2021/01/26 10:07:45;;;;;;;21.73;9.50;;;;;;;;;;5070531;28;20213;-74
2021/01/26 10:10:51;;;;;;;18.40;7.73;;;;;;;;;;5074014;28;20333;-73
2021/01/26 10:14:10;;;;;;;20.40;9.40;;;;;;;;;;5069919;28;20230;-73
2021/01/26 10:17:18;;;;;;;20.33;9.43;;;;;;;;;;5074885;28;20214;-73
2021/01/26 10:20:23;;;;;;;15.33;7.97;;;;;;;;;;5084140;28;20282;-73
2021/01/26 10:23:31;;;;;;;19.63;8.87;;;;;;;;;;5070632;28;20249;-74
2021/01/26 10:26:39;;;;;;;20.60;8.50;;;;;;;;;;5080800;28;20214;-74
2021/01/26 10:29:44;;;;;;;21.70;9.10;;;;;;;;;;5073650;28;20310;-74
2021/01/26 10:32:51;;;;;;;19.23;8.57;;;;;;;;;;5072232;28;20238;-74
2021/01/26 10:35:55;;;;;;;17.30;8.13;;;;;;;;;;5068308;28;20241;-73
2021/01/26 10:39:01;;;;;;;16.47;7.00;;;;;;;;;;5075278;28;20216;-73
2021/01/26 10:42:08;;;;;;;17.87;7.67;;;;;;;;;;5073236;28;20258;-73
2021/01/26 10:45:13;;;;;;;17.00;7.43;;;;;;;;;;5070642;28;20213;-73
2021/01/26 10:48:23;;;;;;;19.47;7.40;;;;;;;;;;5075230;28;20206;-73
2021/01/26 10:51:30;;;;;;;14.83;7.07;;;;;;;;;;5083745;28;20301;-75
2021/01/26 10:54:36;;;;;;;14.87;6.90;;;;;;;;;;5065990;28;20222;-74
2021/01/26 10:57:41;;;;;;;22.93;8.73;;;;;;;;;;5072290;28;20202;-74
2021/01/26 11:00:45;;;;;;;18.77;5.93;;;;;;;;;;5072238;28;20218;-74
2021/01/26 11:03:51;;;;;;;14.83;5.77;;;;;;;;;;5076729;28;20257;-73
2021/01/26 11:06:55;;;;;;;11.57;5.60;;;;;;;;;;5066743;28;20225;-72
2021/01/26 11:10:00;;;;;;;20.33;7.27;;;;;;;;;;5071011;28;20221;-74
2021/01/26 11:13:05;;;;;;;15.83;6.43;;;;;;;;;;5071587;28;20760;-73
2021/01/26 11:16:10;;;;;;;16.80;5.77;;;;;;;;;;5067395;28;20684;-74
2021/01/26 11:19:16;;;;;;;12.70;5.70;;;;;;;;;;5066797;28;20565;-74
2021/01/26 11:22:20;;;;;;;12.50;5.43;;;;;;;;;;5071415;28;20667;-73
2021/01/26 11:25:25;;;;;;;12.90;5.87;;;;;;;;;;5070786;28;20230;-74
2021/01/26 11:28:33;;;;;;;9.73;5.17;;;;;;;;;;5072288;28;20567;-73
2021/01/26 11:31:38;;;;;;;9.10;4.90;;;;;;;;;;5064045;28;20232;-74
2021/01/26 11:34:44;;;;;;;13.30;5.97;;;;;;;;;;5073069;28;20379;-75
2021/01/26 11:37:49;;;;;;;12.70;6.43;;;;;;;;;;5065557;28;20279;-75
2021/01/26 11:40:56;;;;;;;12.63;6.30;;;;;;;;;;5072244;28;20195;-75
2021/01/26 11:44:00;;;;;;;16.60;6.80;;;;;;;;;;5071184;28;20187;-74
2021/01/26 11:47:05;;;;;;;12.93;6.47;;;;;;;;;;5064467;28;20190;-76
2021/01/26 11:50:13;;;;;;;16.90;6.63;;;;;;;;;;5071210;28;20194;-74
2021/01/26 11:53:19;;;;;;;11.03;6.00;;;;;;;;;;5071064;28;20269;-75
2021/01/26 11:56:25;;;;;;;12.70;5.90;;;;;;;;;;5065435;28;20562;-75
2021/01/26 11:59:29;;;;;;;10.53;5.50;;;;;;;;;;5068513;28;20605;-74
2021/01/26 12:02:35;;;;;;;13.77;5.80;;;;;;;;;;5070969;28;20279;-74
2021/01/26 12:05:41;;;;;;;17.03;5.90;;;;;;;;;;5070500;28;20587;-75
2021/01/26 12:08:45;;;;;;;16.87;6.70;;;;;;;;;;5070903;28;20252;-73
2021/01/26 12:11:50;;;;;;;16.87;6.37;;;;;;;;;;5071126;28;20817;-74
2021/01/26 12:14:55;;;;;;;11.63;6.20;;;;;;;;;;5069468;28;20709;-75
2021/01/26 12:18:00;;;;;;;12.67;6.30;;;;;;;;;;5070776;28;20252;-75
2021/01/26 12:21:06;;;;;;;16.80;6.30;;;;;;;;;;5070141;28;20194;-74
2021/01/26 12:24:10;;;;;;;19.63;7.40;;;;;;;;;;5071779;28;20222;-74
2021/01/26 12:27:15;;;;;;;12.23;5.57;;;;;;;;;;5069647;28;20256;-73
2021/01/26 12:30:20;;;;;;;10.03;5.17;;;;;;;;;;5071498;28;20199;-75
2021/01/26 12:33:26;;;;;;;11.13;5.40;;;;;;;;;;5066211;28;20683;-75
2021/01/26 12:36:31;;;;;;;13.10;4.50;;;;;;;;;;5069174;28;20182;-75
2021/01/26 12:39:36;;;;;;;12.67;5.60;;;;;;;;;;5066635;28;20269;-75
2021/01/26 12:42:41;;;;;;;12.17;5.30;;;;;;;;;;5067792;28;20230;-75
2021/01/26 12:45:46;;;;;;;10.50;4.87;;;;;;;;;;5070311;28;20198;-78
2021/01/26 12:48:52;;;;;;;8.70;4.23;;;;;;;;;;5067445;28;20318;-73
2021/01/26 12:51:58;;;;;;;9.07;4.63;;;;;;;;;;5070240;28;20279;-74
2021/01/26 12:55:10;;;;;;;12.50;4.23;;;;;;;;;;5056944;28;20230;-78
2021/01/26 12:58:18;;;;;;;8.03;4.33;;;;;;;;;;5065534;28;20202;-77
2021/01/26 13:01:24;;;;;;;7.97;4.20;;;;;;;;;;5069539;28;20252;-77
2021/01/26 13:04:29;;;;;;;8.33;4.50;;;;;;;;;;5062549;28;20535;-77
2021/01/26 13:07:34;;;;;;;9.20;4.90;;;;;;;;;;5068009;28;20198;-77
2021/01/26 13:10:39;;;;;;;11.50;4.80;;;;;;;;;;5089821;28;20240;-77
2021/01/26 13:13:44;;;;;;;7.97;4.33;;;;;;;;;;5066691;28;20226;-77
2021/01/26 13:16:49;;;;;;;12.63;4.97;;;;;;;;;;5067892;28;20332;-75
2021/01/26 13:19:54;;;;;;;7.43;3.97;;;;;;;;;;5069557;28;20233;-76
2021/01/26 13:23:00;;;;;;;7.77;3.73;;;;;;;;;;5070002;28;20754;-76
2021/01/26 13:26:05;;;;;;;7.67;4.10;;;;;;;;;;5067418;28;20206;-76
2021/01/26 13:29:09;;;;;;;10.20;4.30;;;;;;;;;;5053782;28;20280;-76
2021/01/26 13:32:14;;;;;;;11.47;3.93;;;;;;;;;;5070259;28;20296;-76
2021/01/26 13:35:20;;;;;;;12.37;4.60;;;;;;;;;;5069706;28;20229;-75
2021/01/26 13:38:26;;;;;;;12.50;5.17;;;;;;;;;;5069544;28;20221;-76
2021/01/26 13:41:30;;;;;;;10.83;4.60;;;;;;;;;;5071133;28;20207;-75
2021/01/26 13:44:37;;;;;;;12.83;4.17;;;;;;;;;;5068838;28;20222;-75
2021/01/26 13:47:42;;;;;;;9.63;4.67;;;;;;;;;;5069167;28;20242;-75
2021/01/26 13:50:47;;;;;;;9.07;3.87;;;;;;;;;;5063619;28;20285;-76
2021/01/26 13:53:52;;;;;;;13.50;5.37;;;;;;;;;;5065400;28;20214;-76
2021/01/26 13:56:57;;;;;;;14.63;4.97;;;;;;;;;;5068041;28;20214;-76
2021/01/26 14:00:05;;;;;;;15.43;6.10;;;;;;;;;;5068062;28;20701;-76
2021/01/26 14:03:15;;;;;;;11.57;5.83;;;;;;;;;;5072525;28;20717;-75
2021/01/26 14:06:21;;;;;;;10.57;4.43;;;;;;;;;;5072677;28;20218;-75
2021/01/26 14:09:27;;;;;;;17.27;5.80;;;;;;;;;;5072396;28;20267;-76
2021/01/26 14:12:32;;;;;;;12.40;5.33;;;;;;;;;;5074467;28;20246;-76
2021/01/26 14:15:36;;;;;;;12.30;4.30;;;;;;;;;;5069345;28;20214;-77
2021/01/26 14:18:41;;;;;;;10.43;4.60;;;;;;;;;;5079785;28;20640;-76
2021/01/26 14:21:46;;;;;;;13.53;4.67;;;;;;;;;;5083302;28;20302;-77
2021/01/26 14:24:53;;;;;;;12.27;4.77;;;;;;;;;;5090607;28;20237;-82
2021/01/26 14:27:57;;;;;;;10.50;4.07;;;;;;;;;;5075329;28;20206;-78
2021/01/26 14:31:02;;;;;;;15.17;5.40;;;;;;;;;;5071022;28;20284;-78
2021/01/26 14:34:07;;;;;;;14.20;4.97;;;;;;;;;;5072837;28;20230;-77
2021/01/26 14:37:12;;;;;;;14.73;5.37;;;;;;;;;;5069077;28;20610;-77
2021/01/26 14:40:18;;;;;;;14.97;5.93;;;;;;;;;;5065854;28;20206;-77
2021/01/26 14:43:24;;;;;;;12.60;4.93;;;;;;;;;;5069485;28;20275;-77
2021/01/26 14:46:31;;;;;;;15.03;5.00;;;;;;;;;;5071150;28;20244;-77
2021/01/26 14:49:36;;;;;;;9.07;4.30;;;;;;;;;;5073218;28;20264;-77
2021/01/26 14:52:41;;;;;;;10.33;5.07;;;;;;;;;;5073158;28;20645;-77
2021/01/26 14:55:46;;;;;;;10.77;5.30;;;;;;;;;;5069052;28;20229;-78
2021/01/26 14:58:51;;;;;;;12.37;5.47;;;;;;;;;;5070104;28;20267;-77
2021/01/26 15:01:56;;;;;;;13.37;4.80;;;;;;;;;;5066246;28;20341;-74
2021/01/26 15:05:02;;;;;;;16.87;4.73;;;;;;;;;;5070242;28;20696;-74
2021/01/26 15:08:06;;;;;;;13.87;4.63;;;;;;;;;;5067801;28;20663;-74
2021/01/26 15:11:12;;;;;;;16.03;5.03;;;;;;;;;;5071371;28;20681;-74
2021/01/26 15:14:20;;;;;;;11.27;4.40;;;;;;;;;;5071245;28;20210;-74
2021/01/26 15:17:25;;;;;;;9.17;3.97;;;;;;;;;;5074723;28;20229;-74
2021/01/26 15:20:29;;;;;;;13.17;5.50;;;;;;;;;;5065604;28;20690;-74
2021/01/26 15:23:35;;;;;;;9.57;4.33;;;;;;;;;;5070608;28;20291;-75
2021/01/26 15:26:41;;;;;;;12.87;5.30;;;;;;;;;;5060150;28;20221;-74
2021/01/26 15:29:46;;;;;;;10.70;4.87;;;;;;;;;;5072139;28;20194;-73
2021/01/26 15:32:51;;;;;;;18.37;5.40;;;;;;;;;;5076235;28;20233;-74
2021/01/26 15:35:55;;;;;;;13.60;5.37;;;;;;;;;;5082308;28;20234;-74
2021/01/26 15:39:00;;;;;;;13.03;4.57;;;;;;;;;;5072819;28;20202;-74
2021/01/26 15:42:06;;;;;;;12.57;5.33;;;;;;;;;;5072719;28;20269;-74
2021/01/26 15:45:12;;;;;;;16.80;5.73;;;;;;;;;;5071544;28;20205;-74
2021/01/26 15:48:24;;;;;;;15.10;5.37;;;;;;;;;;5069660;28;20286;-74
2021/01/26 15:51:32;;;;;;;13.93;6.43;;;;;;;;;;5064399;28;20199;-72
2021/01/26 15:54:37;;;;;;;16.73;5.87;;;;;;;;;;5069203;28;20218;-73
2021/01/26 15:57:42;;;;;;;15.10;5.30;;;;;;;;;;5065657;28;20279;-72
2021/01/26 16:00:47;;;;;;;13.53;5.10;;;;;;;;;;5070516;28;20592;-74
2021/01/26 16:03:53;;;;;;;5.30;3.10;;;;;;;;;;5063489;28;20280;-73
2021/01/26 16:06:58;;;;;;;9.43;4.27;;;;;;;;;;5057436;28;20728;-75
2021/01/26 16:10:03;;;;;;;12.50;4.97;;;;;;;;;;5068830;28;20214;-76
2021/01/26 16:13:09;;;;;;;9.77;5.20;;;;;;;;;;5070154;28;20739;-74
2021/01/26 16:16:14;;;;;;;12.33;6.20;;;;;;;;;;5062326;28;20226;-74
2021/01/26 16:19:18;;;;;;;16.30;5.97;;;;;;;;;;5070039;28;20252;-73
2021/01/26 16:22:23;;;;;;;15.07;6.23;;;;;;;;;;5073380;28;20264;-76
2021/01/26 16:25:31;;;;;;;16.03;6.37;;;;;;;;;;5066510;28;20206;-77
2021/01/26 16:28:37;;;;;;;14.17;6.40;;;;;;;;;;5053920;28;20206;-74
2021/01/26 16:31:42;;;;;;;14.43;5.40;;;;;;;;;;5065452;28;20661;-74
2021/01/26 16:34:50;;;;;;;13.40;5.47;;;;;;;;;;5067998;28;20217;-75
2021/01/26 16:37:55;;;;;;;10.53;4.63;;;;;;;;;;5069443;28;20218;-73
2021/01/26 16:41:00;;;;;;;11.60;5.97;;;;;;;;;;5069992;28;20213;-75
2021/01/26 16:44:06;;;;;;;10.20;5.03;;;;;;;;;;5070201;28;20701;-74
2021/01/26 16:47:10;;;;;;;11.70;5.50;;;;;;;;;;5070114;28;20280;-75
2021/01/26 16:50:16;;;;;;;10.67;4.63;;;;;;;;;;5068189;28;20214;-73
2021/01/26 16:53:21;;;;;;;10.40;5.50;;;;;;;;;;5069891;28;20603;-74
2021/01/26 16:56:26;;;;;;;10.33;5.43;;;;;;;;;;5069928;28;20597;-74
2021/01/26 16:59:32;;;;;;;11.37;5.03;;;;;;;;;;5072824;28;20268;-75
2021/01/26 17:02:37;;;;;;;13.87;5.17;;;;;;;;;;5070264;28;20238;-74
2021/01/26 17:05:41;;;;;;;15.00;6.00;;;;;;;;;;5064800;28;20202;-74
2021/01/26 17:08:46;;;;;;;11.50;4.93;;;;;;;;;;5076441;28;20274;-74
2021/01/26 17:11:51;;;;;;;11.20;5.00;;;;;;;;;;5072377;28;20364;-73
2021/01/26 17:14:59;;;;;;;8.80;4.37;;;;;;;;;;5072238;28;20229;-74
2021/01/26 17:18:04;;;;;;;17.93;4.47;;;;;;;;;;5066792;28;20637;-74
2021/01/26 17:21:08;;;;;;;10.17;4.87;;;;;;;;;;5063950;28;20226;-74
2021/01/26 17:24:12;;;;;;;14.63;5.47;;;;;;;;;;5070016;28;20252;-72
2021/01/26 17:27:18;;;;;;;10.03;4.73;;;;;;;;;;5069883;28;20621;-73
2021/01/26 17:30:24;;;;;;;14.27;6.17;;;;;;;;;;5073060;28;20275;-78
2021/01/26 17:33:29;;;;;;;11.37;5.33;;;;;;;;;;5075329;28;20229;-74
2021/01/26 17:36:37;;;;;;;10.93;5.20;;;;;;;;;;5069667;28;20214;-78
2021/01/26 17:39:42;;;;;;;13.43;4.87;;;;;;;;;;5075182;28;20260;-75
2021/01/26 17:42:49;;;;;;;15.80;6.53;;;;;;;;;;5054051;28;20336;-73
2021/01/26 17:45:55;;;;;;;28.90;8.83;;;;;;;;;;5053761;28;20250;-73
2021/01/26 17:48:59;;;;;;;17.23;6.77;;;;;;;;;;5053781;28;20663;-73
2021/01/26 17:52:04;;;;;;;16.27;5.87;;;;;;;;;;5054251;28;20241;-73
2021/01/26 17:55:10;;;;;;;15.73;7.03;;;;;;;;;;5072695;28;20217;-73
2021/01/26 17:58:15;;;;;;;12.27;5.97;;;;;;;;;;5073382;28;20784;-72
2021/01/26 18:01:20;;;;;;;12.97;6.90;;;;;;;;;;5073282;28;20642;-72
2021/01/26 18:04:25;;;;;;;13.50;6.47;;;;;;;;;;5073217;28;20669;-73
2021/01/26 18:07:29;;;;;;;12.27;6.03;;;;;;;;;;5073330;28;20205;-73
2021/01/26 18:10:34;;;;;;;17.00;6.87;;;;;;;;;;5072803;28;20313;-72
2021/01/26 18:13:38;;;;;;;19.03;6.73;;;;;;;;;;5072131;28;20246;-72
2021/01/26 18:16:44;;;;;;;15.97;6.70;;;;;;;;;;5073104;28;20226;-73
2021/01/26 18:19:49;;;;;;;15.73;6.80;;;;;;;;;;5071580;28;20344;-75